createdAt,value
2019-04-05T00:01:52.474Z,10.93
2019-04-05T00:04:20.713Z,13.10
2019-04-05T00:06:48.941Z,12.47
2019-04-05T00:09:17.582Z,6.27
2019-04-05T00:11:46.197Z,11.10
2019-04-05T00:14:14.837Z,12.90
2019-04-05T00:16:43.058Z,13.10
2019-04-05T00:19:11.669Z,11.57
2019-04-05T00:21:39.880Z,12.37
2019-04-05T00:24:08.556Z,12.33
2019-04-05T00:26:37.103Z,12.33
2019-04-05T00:29:05.781Z,12.23
2019-04-05T00:31:34.321Z,12.27
2019-04-05T00:34:02.669Z,12.40
2019-04-05T00:36:31.217Z,12.03
2019-04-05T00:38:59.887Z,10.30
2019-04-05T00:41:28.134Z,10.87
2019-04-05T00:43:56.701Z,12.50
2019-04-05T00:46:25.314Z,11.90
2019-04-05T00:48:53.917Z,11.83
2019-04-05T00:51:22.529Z,10.73
2019-04-05T00:53:50.845Z,11.50
2019-04-05T00:56:19.487Z,12.67
2019-04-05T00:58:48.218Z,11.73
2019-04-05T01:01:16.754Z,11.67
2019-04-05T01:03:45.305Z,11.20
2019-04-05T01:06:13.974Z,11.57
2019-04-05T01:08:42.615Z,11.00
2019-04-05T01:11:10.958Z,10.37
2019-04-05T01:13:40.244Z,11.00
2019-04-05T01:16:08.817Z,8.03
2019-04-05T01:18:37.433Z,9.97
2019-04-05T01:21:07.819Z,10.57
2019-04-05T01:23:36.040Z,11.37
2019-04-05T01:26:04.938Z,10.90
2019-04-05T01:28:34.102Z,8.97
2019-04-05T01:31:02.825Z,11.67
2019-04-05T01:33:31.108Z,9.23
2019-04-05T01:35:59.756Z,10.87
2019-04-05T01:38:28.308Z,10.40
2019-04-05T01:40:58.521Z,7.37
2019-04-05T01:43:27.146Z,8.70
2019-04-05T01:45:55.858Z,11.13
2019-04-05T01:48:24.140Z,10.97
2019-04-05T01:50:52.788Z,11.57
2019-04-05T01:53:21.009Z,10.87
2019-04-05T01:55:49.586Z,11.30
2019-04-05T01:58:18.133Z,11.60
2019-04-05T02:00:46.753Z,11.47
2019-04-05T02:03:15.407Z,12.30
2019-04-05T02:05:44.413Z,11.10
2019-04-05T02:08:12.742Z,11.57
2019-04-05T02:10:41.432Z,11.37
2019-04-05T02:13:10.144Z,11.57
2019-04-05T02:15:38.962Z,10.70
2019-04-05T02:18:07.581Z,12.13
2019-04-05T02:20:36.297Z,12.10
2019-04-05T02:23:04.981Z,11.97
2019-04-05T02:25:33.312Z,10.33
2019-04-05T02:28:01.525Z,12.03
2019-04-05T02:30:30.311Z,10.43
2019-04-05T02:32:59.024Z,11.47
2019-04-05T02:35:27.708Z,10.43
2019-04-05T02:37:56.361Z,11.87
2019-04-05T02:40:26.846Z,10.57
2019-04-05T02:42:57.633Z,11.50
2019-04-05T02:45:28.587Z,11.63
2019-04-05T02:48:00.247Z,12.30
2019-04-05T02:50:31.599Z,11.03
2019-04-05T02:53:03.267Z,10.90
2019-04-05T02:55:31.846Z,11.37
2019-04-05T02:58:03.450Z,11.97
2019-04-05T03:00:32.418Z,11.97
2019-04-05T03:03:03.409Z,9.00
2019-04-05T03:05:31.694Z,11.60
2019-04-05T03:08:00.418Z,11.13
2019-04-05T03:10:48.550Z,10.47
2019-04-05T03:13:17.267Z,10.70
2019-04-05T03:15:46.450Z,11.67
2019-04-05T03:18:15.366Z,9.23
2019-04-05T03:20:44.285Z,11.77
2019-04-05T03:23:13.131Z,11.43
2019-04-05T03:25:41.916Z,11.00
2019-04-05T03:28:10.729Z,10.50
2019-04-05T03:30:39.516Z,11.97
2019-04-05T03:33:08.950Z,12.03
2019-04-05T03:35:37.726Z,11.77
2019-04-05T03:38:06.834Z,10.50
2019-04-05T03:40:35.718Z,12.03
2019-04-05T03:43:04.716Z,11.90
2019-04-05T03:45:33.367Z,12.43
2019-04-05T03:48:02.390Z,11.90
2019-04-05T03:50:31.202Z,12.17
2019-04-05T03:52:59.850Z,11.43
2019-04-05T03:55:28.569Z,11.30
2019-04-05T03:57:57.263Z,11.90
2019-04-05T04:00:25.973Z,11.73
2019-04-05T04:02:54.658Z,12.07
2019-04-05T04:05:22.982Z,12.43
2019-04-05T04:07:51.663Z,12.00
2019-04-05T04:10:20.983Z,12.67
2019-04-05T04:12:50.375Z,11.27
2019-04-05T04:15:19.088Z,12.60
2019-04-05T04:17:48.073Z,12.67
2019-04-05T04:20:33.138Z,11.97
2019-04-05T04:23:01.873Z,12.13
2019-04-05T04:25:30.851Z,12.10
2019-04-05T04:27:59.541Z,11.87
2019-04-05T04:30:28.756Z,12.10
2019-04-05T04:32:57.537Z,11.77
2019-04-05T04:35:26.456Z,11.30
2019-04-05T04:37:55.252Z,11.93
2019-04-05T04:40:24.258Z,11.20
2019-04-05T04:42:53.268Z,11.87
2019-04-05T04:45:22.248Z,13.03
2019-04-05T04:47:51.143Z,11.87
2019-04-05T04:50:20.925Z,10.50
2019-04-05T04:52:50.319Z,13.00
2019-04-05T04:55:19.228Z,12.20
2019-04-05T04:57:48.014Z,11.80
2019-04-05T05:00:16.432Z,11.57
2019-04-05T05:02:45.025Z,12.10
2019-04-05T05:05:14.515Z,12.47
2019-04-05T05:07:43.330Z,12.90
2019-04-05T05:10:12.195Z,12.53
2019-04-05T05:12:40.912Z,13.10
2019-04-05T05:15:09.898Z,11.70
2019-04-05T05:17:39.106Z,12.60
2019-04-05T05:20:08.799Z,12.60
2019-04-05T05:22:37.513Z,13.33
2019-04-05T05:25:07.301Z,11.10
2019-04-05T05:27:36.650Z,12.90
2019-04-05T05:30:08.301Z,13.70
2019-04-05T05:32:37.416Z,13.23
2019-04-05T05:35:09.253Z,14.63
2019-04-05T05:37:37.969Z,13.37
2019-04-05T05:40:07.655Z,13.97
2019-04-05T05:42:36.182Z,12.93
2019-04-05T05:45:05.942Z,12.37
2019-04-05T05:47:34.961Z,13.97
2019-04-05T05:50:04.750Z,13.30
2019-04-05T05:52:33.365Z,13.63
2019-04-05T05:55:01.918Z,13.83
2019-04-05T05:57:30.169Z,15.67
2019-04-05T06:00:00.517Z,16.20
2019-04-05T06:02:28.941Z,14.27
2019-04-05T06:04:57.485Z,14.73
2019-04-05T06:07:26.060Z,13.57
2019-04-05T06:09:54.355Z,13.47
2019-04-05T06:12:22.940Z,14.50
2019-04-05T06:14:51.485Z,13.30
2019-04-05T06:17:20.134Z,13.23
2019-04-05T06:19:48.685Z,13.07
2019-04-05T06:22:17.261Z,12.87
2019-04-05T06:24:45.811Z,12.93
2019-04-05T06:27:14.061Z,12.57
2019-04-05T06:29:42.610Z,13.37
2019-04-05T06:32:11.197Z,12.67
2019-04-05T06:34:39.745Z,13.13
2019-04-05T06:37:08.367Z,13.83
2019-04-05T06:39:36.952Z,12.30
2019-04-05T06:42:05.166Z,13.50
2019-04-05T06:44:33.825Z,13.17
2019-04-05T06:47:02.366Z,11.60
2019-04-05T06:49:32.001Z,13.77
2019-04-05T06:52:00.601Z,13.03
2019-04-05T06:54:29.181Z,13.23
2019-04-05T06:56:57.722Z,12.83
2019-04-05T06:59:26.368Z,12.17
2019-04-05T07:01:54.657Z,11.57
2019-04-05T07:04:23.237Z,12.80
2019-04-05T07:06:51.786Z,13.57
2019-04-05T07:09:20.367Z,12.10
2019-04-05T07:11:48.912Z,13.20
2019-04-05T07:14:17.482Z,12.70
2019-04-05T07:16:46.096Z,12.50
2019-04-05T07:19:14.514Z,12.40
2019-04-05T07:21:43.067Z,13.20
2019-04-05T07:24:11.642Z,13.33
2019-04-05T07:26:40.218Z,12.70
2019-04-05T07:29:08.766Z,12.57
2019-04-05T07:31:37.344Z,11.60
2019-04-05T07:34:06.029Z,11.77
2019-04-05T07:36:34.617Z,11.53
2019-04-05T07:39:04.706Z,11.10
2019-04-05T07:41:33.254Z,11.77
2019-04-05T07:44:01.500Z,11.03
2019-04-05T07:46:30.117Z,12.27
2019-04-05T07:48:58.700Z,12.27
2019-04-05T07:51:27.236Z,11.33
2019-04-05T07:53:55.496Z,11.70
2019-04-05T07:56:24.281Z,12.50
2019-04-05T07:58:52.535Z,12.73
2019-04-05T08:01:21.151Z,11.37
2019-04-05T08:03:49.725Z,12.73
2019-04-05T08:06:18.441Z,10.90
2019-04-05T08:08:53.043Z,12.43
2019-04-05T08:11:22.862Z,12.43
2019-04-05T08:13:55.325Z,11.23
2019-04-05T08:16:23.973Z,12.60
2019-04-05T08:18:57.929Z,11.13
2019-04-05T08:21:22.422Z,12.10
2019-04-05T08:23:51.022Z,12.17
2019-04-05T08:26:19.542Z,11.93
2019-04-05T08:28:48.085Z,12.73
2019-04-05T08:31:16.737Z,11.70
2019-04-05T08:33:45.349Z,12.03
2019-04-05T08:36:13.924Z,12.17
2019-04-05T08:38:42.474Z,12.00
2019-04-05T08:41:11.054Z,12.10
2019-04-05T08:43:39.670Z,12.43
2019-04-05T08:46:08.330Z,12.70
2019-04-05T08:48:36.557Z,11.67
2019-04-05T08:51:05.266Z,12.07
2019-04-05T08:53:33.819Z,11.90
2019-04-05T08:56:02.466Z,13.00
2019-04-05T08:58:33.487Z,12.57
2019-04-05T09:01:01.137Z,12.43
2019-04-05T09:03:29.398Z,12.17
2019-04-05T09:05:57.622Z,11.27
2019-04-05T09:08:26.157Z,12.60
2019-04-05T09:10:54.812Z,12.77
2019-04-05T09:13:23.368Z,11.00
2019-04-05T09:15:52.084Z,13.53
2019-04-05T09:18:20.625Z,14.07
2019-04-05T09:20:48.877Z,13.67
2019-04-05T09:23:17.427Z,13.90
2019-04-05T09:25:46.005Z,12.77
2019-04-05T09:28:14.558Z,13.33
2019-04-05T09:30:42.884Z,13.37
2019-04-05T09:33:11.502Z,13.80
2019-04-05T09:35:40.079Z,13.17
2019-04-05T09:38:08.725Z,13.53
2019-04-05T09:40:36.937Z,12.60
2019-04-05T09:43:05.515Z,13.83
2019-04-05T09:45:34.134Z,13.03
2019-04-05T09:48:02.782Z,12.83
2019-04-05T09:50:31.402Z,14.27
2019-04-05T09:52:59.980Z,14.00
2019-04-05T09:55:28.593Z,13.27
2019-04-05T09:57:56.848Z,15.07
2019-04-05T10:00:27.413Z,13.70
2019-04-05T10:02:56.130Z,13.47
2019-04-05T10:05:24.354Z,13.33
2019-04-05T10:07:55.324Z,13.10
2019-04-05T10:10:22.865Z,12.20
2019-04-05T10:12:51.447Z,13.93
2019-04-05T10:15:21.702Z,13.20
2019-04-05T10:17:50.357Z,12.37
2019-04-05T10:20:19.046Z,13.33
2019-04-05T10:22:47.298Z,11.90
2019-04-05T10:25:16.748Z,11.90
2019-04-05T10:27:45.322Z,11.30
2019-04-05T10:30:14.432Z,12.27
2019-04-05T10:32:45.856Z,12.83
2019-04-05T10:35:13.356Z,12.20
2019-04-05T10:37:41.903Z,11.53
2019-04-05T10:40:11.326Z,12.60
2019-04-05T10:42:39.874Z,12.50
2019-04-05T10:45:11.258Z,10.67
2019-04-05T10:47:39.885Z,11.70
2019-04-05T10:50:11.003Z,10.83
2019-04-05T10:52:39.890Z,12.67
2019-04-05T10:55:08.431Z,11.60
2019-04-05T10:57:37.108Z,10.40
2019-04-05T11:00:08.888Z,11.67
2019-04-05T11:02:37.172Z,11.10
2019-04-05T11:05:05.990Z,10.93
2019-04-05T11:07:35.187Z,11.83
2019-04-05T11:10:06.133Z,12.83
2019-04-05T11:12:34.426Z,11.60
2019-04-05T11:15:03.250Z,11.60
2019-04-05T11:17:31.864Z,12.77
2019-04-05T11:20:00.442Z,12.57
2019-04-05T11:22:28.661Z,11.70
2019-04-05T11:24:56.921Z,13.10
2019-04-05T11:27:25.469Z,12.87
2019-04-05T11:29:54.049Z,12.00
2019-04-05T11:32:22.674Z,12.00
2019-04-05T11:34:51.249Z,12.20
2019-04-05T11:37:20.072Z,12.63
2019-04-05T11:39:48.980Z,11.67
2019-04-05T11:42:18.742Z,11.87
2019-04-05T11:44:48.540Z,11.10
2019-04-05T11:47:19.168Z,12.10
2019-04-05T11:49:47.390Z,12.60
2019-04-05T11:52:16.086Z,11.40
2019-04-05T11:54:46.065Z,11.93
2019-04-05T11:57:14.846Z,11.40
2019-04-05T11:59:43.496Z,11.47
2019-04-05T12:02:13.690Z,11.93
2019-04-05T12:04:42.868Z,11.80
2019-04-05T12:07:11.697Z,11.60
2019-04-05T12:09:40.275Z,11.70
2019-04-05T12:12:08.823Z,12.77
2019-04-05T12:14:37.259Z,11.23
2019-04-05T12:17:06.256Z,11.53
2019-04-05T12:19:37.916Z,12.27
2019-04-05T12:22:05.852Z,11.27
2019-04-05T12:24:35.454Z,11.67
2019-04-05T12:27:04.820Z,12.30
2019-04-05T12:29:34.157Z,12.43
2019-04-05T12:32:02.874Z,11.33
2019-04-05T12:34:31.425Z,11.00
2019-04-05T12:36:59.998Z,11.23
2019-04-05T12:39:28.554Z,11.27
2019-04-05T12:41:57.134Z,12.10
2019-04-05T12:44:25.769Z,12.13
2019-04-05T12:46:54.312Z,11.93
2019-04-05T12:49:22.889Z,12.00
2019-04-05T12:51:51.448Z,12.17
2019-04-05T12:54:20.030Z,11.77
2019-04-05T12:56:48.581Z,12.70
2019-04-05T12:59:17.160Z,13.00
2019-04-05T13:01:46.489Z,12.47
2019-04-05T13:04:15.197Z,12.93
2019-04-05T13:06:43.751Z,12.23
2019-04-05T13:09:13.357Z,13.20
2019-04-05T13:11:41.957Z,11.87
2019-04-05T13:14:10.609Z,12.73
2019-04-05T13:16:39.156Z,12.67
2019-04-05T13:19:07.748Z,12.90
2019-04-05T13:21:36.289Z,13.27
2019-04-05T13:24:09.448Z,12.30
2019-04-05T13:26:36.836Z,13.07
2019-04-05T13:29:05.805Z,13.67
2019-04-05T13:31:34.386Z,12.27
2019-04-05T13:34:02.946Z,12.80
2019-04-05T13:36:31.494Z,12.33
2019-04-05T13:39:00.614Z,13.33
2019-04-05T13:41:31.442Z,12.73
2019-04-05T13:44:01.224Z,13.60
2019-04-05T13:46:28.664Z,11.53
2019-04-05T13:48:57.245Z,12.17
2019-04-05T13:51:28.132Z,11.93
2019-04-05T13:53:56.021Z,12.00
2019-04-05T13:56:24.580Z,12.87
2019-04-05T13:58:53.154Z,12.53
2019-04-05T14:01:21.705Z,13.17
2019-04-05T14:03:50.713Z,12.27
2019-04-05T14:06:19.016Z,12.73
2019-04-05T14:08:47.671Z,12.03
2019-04-05T14:11:16.223Z,12.53
2019-04-05T14:13:44.800Z,12.40
2019-04-05T14:16:13.365Z,13.03
2019-04-05T14:18:45.185Z,13.20
2019-04-05T14:21:12.225Z,12.77
2019-04-05T14:23:40.805Z,12.40
2019-04-05T14:26:09.364Z,13.50
2019-04-05T14:28:37.938Z,13.20
2019-04-05T14:31:06.497Z,11.87
2019-04-05T14:33:35.145Z,12.07
2019-04-05T14:36:03.766Z,13.43
2019-04-05T14:38:32.355Z,13.93
2019-04-05T14:41:00.906Z,12.10
2019-04-05T14:43:29.494Z,12.37
2019-04-05T14:45:58.076Z,12.77
2019-04-05T14:48:27.674Z,13.50
2019-04-05T14:50:57.971Z,13.13
2019-04-05T14:53:26.801Z,11.47
2019-04-05T14:55:55.053Z,12.57
2019-04-05T14:58:23.614Z,13.57
2019-04-05T15:00:52.194Z,11.17
2019-04-05T15:03:20.813Z,12.90
2019-04-05T15:05:49.533Z,14.30
2019-04-05T15:08:20.306Z,12.63
2019-04-05T15:10:51.152Z,13.53
2019-04-05T15:13:18.526Z,12.70
2019-04-05T15:15:47.177Z,13.53
2019-04-05T15:18:15.736Z,14.40
2019-04-05T15:20:44.386Z,14.40
2019-04-05T15:23:14.079Z,13.90
2019-04-05T15:25:43.119Z,13.30
2019-04-05T15:28:11.668Z,14.53
2019-04-05T15:30:40.253Z,13.17
2019-04-05T15:33:08.798Z,13.80
2019-04-05T15:35:37.378Z,13.60
2019-04-05T15:38:06.002Z,13.60
2019-04-05T15:40:34.594Z,15.03
2019-04-05T15:43:03.142Z,15.73
2019-04-05T15:45:31.761Z,13.87
2019-04-05T15:48:00.350Z,14.23
2019-04-05T15:50:28.968Z,14.10
2019-04-05T15:52:57.563Z,14.13
2019-04-05T15:55:27.003Z,14.33
2019-04-05T15:57:55.589Z,14.13
2019-04-05T16:00:44.775Z,13.60
2019-04-05T16:03:14.460Z,13.43
2019-04-05T16:05:43.939Z,13.83
2019-04-05T16:08:14.325Z,14.07
2019-04-05T16:10:45.547Z,13.03
2019-04-05T16:13:13.112Z,14.20
2019-04-05T16:15:41.397Z,14.63
2019-04-05T16:18:10.061Z,14.83
2019-04-05T16:20:38.680Z,14.43
2019-04-05T16:23:07.330Z,14.37
2019-04-05T16:25:36.234Z,14.37
2019-04-05T16:28:04.956Z,14.50
2019-04-05T16:30:33.509Z,14.93
2019-04-05T16:33:02.092Z,14.03
2019-04-05T16:35:31.116Z,14.77
2019-04-05T16:37:59.702Z,15.07
2019-04-05T16:40:31.214Z,14.20
2019-04-05T16:43:02.794Z,14.13
2019-04-05T16:45:28.826Z,14.23
2019-04-05T16:47:57.414Z,14.33
2019-04-05T16:50:26.033Z,14.47
2019-04-05T16:52:54.685Z,14.27
2019-04-05T16:55:23.242Z,14.17
2019-04-05T16:57:51.492Z,13.97
2019-04-05T17:00:20.681Z,14.80
2019-04-05T17:02:49.271Z,14.03
2019-04-05T17:05:17.905Z,12.87
2019-04-05T17:07:46.473Z,14.03
2019-04-05T17:10:15.165Z,14.53
2019-04-05T17:12:43.816Z,14.43
2019-04-05T17:15:12.617Z,14.17
2019-04-05T17:17:41.200Z,13.33
2019-04-05T17:20:09.897Z,14.17
2019-04-05T17:22:38.477Z,15.50
2019-04-05T17:25:07.381Z,14.13
2019-04-05T17:27:35.958Z,15.30
2019-04-05T17:30:08.671Z,16.23
2019-04-05T17:32:37.258Z,16.00
2019-04-05T17:35:07.226Z,16.23
2019-04-05T17:37:35.804Z,15.53
2019-04-05T17:40:09.386Z,14.70
2019-04-05T17:42:37.960Z,14.60
2019-04-05T17:45:07.757Z,15.30
2019-04-05T17:47:36.481Z,18.90
2019-04-05T17:50:10.604Z,18.90
2019-04-05T17:52:38.918Z,16.83
2019-04-05T17:55:07.820Z,15.80
2019-04-05T17:57:36.390Z,15.97
2019-04-05T18:00:09.995Z,16.20
2019-04-05T18:02:38.573Z,18.03
2019-04-05T18:05:07.766Z,21.23
2019-04-05T18:07:36.341Z,18.87
2019-04-05T18:10:06.347Z,17.17
2019-04-05T18:12:34.921Z,18.87
2019-04-05T18:15:03.831Z,23.33
2019-04-05T18:17:32.082Z,15.80
2019-04-05T18:20:00.635Z,17.20
2019-04-05T18:22:29.185Z,17.37
2019-04-05T18:24:57.766Z,16.23
2019-04-05T18:27:26.322Z,16.60
2019-04-05T18:29:54.909Z,24.93
2019-04-05T18:32:23.457Z,22.60
2019-04-05T18:34:52.041Z,20.97
2019-04-05T18:37:20.593Z,17.43
2019-04-05T18:39:49.249Z,18.90
2019-04-05T18:42:21.137Z,21.67
2019-04-05T18:44:49.717Z,21.20
2019-04-05T18:47:18.276Z,19.63
2019-04-05T18:49:46.861Z,16.97
2019-04-05T18:52:15.802Z,16.13
2019-04-05T18:54:44.373Z,15.57
2019-04-05T18:57:14.095Z,17.67
2019-04-05T18:59:42.724Z,15.63
2019-04-05T19:02:11.277Z,17.80
2019-04-05T19:04:39.865Z,17.27
2019-04-05T19:07:08.416Z,16.40
2019-04-05T19:09:37.010Z,15.87
2019-04-05T19:12:05.634Z,16.57
2019-04-05T19:14:34.218Z,21.30
2019-04-05T19:17:02.778Z,18.10
2019-04-05T19:19:31.368Z,17.40
2019-04-05T19:21:59.908Z,15.93
2019-04-05T19:24:28.557Z,17.00
2019-04-05T19:26:57.105Z,16.67
2019-04-05T19:29:25.762Z,17.53
2019-04-05T19:49:25.222Z,15.13
2019-04-05T19:51:53.425Z,14.53
2019-04-05T19:54:21.978Z,14.47
2019-04-05T19:56:50.559Z,14.63
2019-04-05T19:59:19.113Z,14.53
2019-04-05T20:01:47.702Z,13.80
2019-04-05T20:04:16.250Z,15.57
2019-04-05T20:06:44.825Z,14.73
2019-04-05T20:09:13.045Z,14.63
2019-04-05T20:11:41.625Z,14.60
2019-04-05T20:14:10.168Z,15.70
2019-04-05T20:16:38.749Z,15.63
2019-04-05T20:19:07.395Z,14.63
2019-04-05T20:21:35.965Z,15.37
2019-04-05T20:24:13.704Z,14.80
2019-04-05T20:26:34.823Z,14.93
2019-04-05T20:29:03.043Z,15.27
2019-04-05T20:31:31.585Z,15.40
2019-04-05T20:34:00.170Z,15.13
2019-04-05T20:36:28.709Z,15.53
2019-04-05T20:38:57.286Z,14.33
2019-04-05T20:41:25.867Z,15.93
2019-04-05T20:43:54.413Z,16.03
2019-04-05T20:46:23.056Z,15.43
2019-04-05T20:48:51.605Z,15.10
2019-04-05T20:51:20.187Z,15.40
2019-04-05T20:53:48.427Z,16.53
2019-04-05T20:56:16.994Z,16.00
2019-04-05T20:58:45.537Z,15.50
2019-04-05T21:01:13.789Z,15.47
2019-04-05T21:03:42.332Z,14.23
2019-04-05T21:06:10.917Z,14.40
2019-04-05T21:08:39.464Z,16.10
2019-04-05T21:11:08.040Z,16.33
2019-04-05T21:13:36.595Z,15.00
2019-04-05T21:16:05.315Z,14.27
2019-04-05T21:18:33.868Z,15.87
2019-04-05T21:21:02.442Z,15.37
2019-04-05T21:23:30.996Z,16.07
2019-04-05T21:25:59.543Z,15.57
2019-04-05T21:28:28.120Z,16.70
2019-04-05T21:30:56.741Z,16.17
2019-04-05T21:33:25.321Z,15.63
2019-04-05T21:35:53.875Z,16.10
2019-04-05T21:38:22.449Z,16.40
2019-04-05T21:40:51.070Z,15.07
2019-04-05T21:43:19.647Z,15.83
2019-04-05T21:45:48.194Z,16.43
2019-04-05T21:48:16.771Z,15.93
2019-04-05T21:50:45.385Z,16.57
2019-04-05T21:53:13.964Z,15.03
2019-04-05T21:55:42.513Z,16.00
2019-04-05T21:58:11.094Z,16.33
2019-04-05T22:00:44.365Z,16.10
2019-04-05T22:03:12.948Z,16.47
2019-04-05T22:05:41.502Z,15.90
2019-04-05T22:08:10.079Z,14.77
2019-04-05T22:10:38.696Z,15.73
2019-04-05T22:13:07.406Z,14.77
2019-04-05T22:15:36.020Z,15.77
2019-04-05T22:18:04.662Z,16.37
2019-04-05T22:20:33.210Z,15.57
2019-04-05T22:23:01.794Z,15.83
2019-04-05T22:25:30.337Z,15.67
2019-04-05T22:27:58.919Z,16.13
2019-04-05T22:30:27.493Z,15.73
2019-04-05T22:32:56.021Z,15.50
2019-04-05T22:35:24.603Z,15.40
2019-04-05T22:37:53.158Z,14.63
2019-04-05T22:40:21.741Z,16.33
2019-04-05T22:42:50.432Z,15.27
2019-04-05T22:45:19.013Z,15.50
2019-04-05T22:47:47.561Z,15.30
2019-04-05T22:50:15.894Z,13.80
2019-04-05T22:52:44.442Z,14.17
2019-04-05T22:55:13.017Z,15.17
2019-04-05T22:57:41.569Z,15.40
2019-04-05T23:00:10.558Z,15.80
2019-04-05T23:02:39.171Z,15.90
2019-04-05T23:05:08.085Z,15.27
2019-04-05T23:07:36.633Z,15.97
2019-04-05T23:10:08.525Z,13.93
2019-04-05T23:12:37.076Z,15.30
2019-04-05T23:15:09.311Z,15.13
2019-04-05T23:17:37.853Z,15.90
2019-04-05T23:20:07.469Z,15.90
2019-04-05T23:22:35.694Z,14.17
2019-04-05T23:25:08.630Z,15.93
2019-04-05T23:27:37.245Z,16.33
2019-04-05T23:30:07.204Z,16.90
2019-04-05T23:32:35.464Z,16.40
2019-04-05T23:35:05.846Z,16.13
2019-04-05T23:37:34.429Z,15.50
2019-04-05T23:40:03.050Z,16.57
2019-04-05T23:42:31.629Z,16.43
2019-04-05T23:45:00.177Z,17.17
2019-04-05T23:47:28.752Z,15.30
2019-04-05T23:49:57.301Z,15.30
2019-04-05T23:52:25.549Z,15.97
2019-04-05T23:54:54.097Z,16.10
2019-04-05T23:57:22.687Z,16.00
2019-04-05T23:59:51.250Z,15.77
